sensor_id;sensor_type;location;lat;lon;timestamp;pressure;altitude;pressure_sealevel;temperature;humidity
13029;BME280;6581;42.662;23.402;2023-03-03T00:02:45;95396.53;;;5.19;100.00
13029;BME280;6581;42.662;23.402;2023-03-03T00:05:47;95385.03;;;5.11;100.00
13029;BME280;6581;42.662;23.402;2023-03-03T00:08:31;95397.50;;;5.14;100.00
13029;BME280;6581;42.662;23.402;2023-03-03T00:11:11;95389.81;;;5.09;100.00
13029;BME280;6581;42.662;23.402;2023-03-03T00:16:40;95387.28;;;5.21;100.00
13029;BME280;6581;42.662;23.402;2023-03-03T00:19:21;95375.00;;;5.05;100.00
13029;BME280;6581;42.662;23.402;2023-03-03T00:22:25;95377.63;;;5.05;100.00
13029;BME280;6581;42.662;23.402;2023-03-03T00:28:45;95374.94;;;5.13;100.00
13029;BME280;6581;42.662;23.402;2023-03-03T00:31:55;95372.78;;;5.15;100.00
13029;BME280;6581;42.662;23.402;2023-03-03T00:34:59;95387.53;;;5.28;100.00
13029;BME280;6581;42.662;23.402;2023-03-03T00:37:34;95369.09;;;5.16;100.00
13029;BME280;6581;42.662;23.402;2023-03-03T00:40:30;95366.28;;;5.21;100.00
13029;BME280;6581;42.662;23.402;2023-03-03T00:43:19;95376.38;;;5.31;100.00
13029;BME280;6581;42.662;23.402;2023-03-03T00:46:21;95359.78;;;5.19;100.00
13029;BME280;6581;42.662;23.402;2023-03-03T00:49:01;95373.97;;;5.26;100.00
13029;BME280;6581;42.662;23.402;2023-03-03T00:51:55;95354.53;;;5.19;100.00
13029;BME280;6581;42.662;23.402;2023-03-03T00:54:52;95355.56;;;5.26;100.00
13029;BME280;6581;42.662;23.402;2023-03-03T00:57:35;95353.38;;;5.28;100.00
13029;BME280;6581;42.662;23.402;2023-03-03T01:00:26;95357.44;;;5.26;100.00
13029;BME280;6581;42.662;23.402;2023-03-03T01:03:05;95324.16;;;5.09;100.00
13029;BME280;6581;42.662;23.402;2023-03-03T01:05:52;95329.69;;;5.16;100.00
13029;BME280;6581;42.662;23.402;2023-03-03T01:09:00;95326.28;;;5.16;100.00
13029;BME280;6581;42.662;23.402;2023-03-03T01:11:54;95326.47;;;5.11;100.00
13029;BME280;6581;42.662;23.402;2023-03-03T01:14:30;95336.50;;;5.17;100.00
13029;BME280;6581;42.662;23.402;2023-03-03T01:17:11;95323.75;;;5.07;100.00
13029;BME280;6581;42.662;23.402;2023-03-03T01:19:46;95327.38;;;5.15;100.00
13029;BME280;6581;42.662;23.402;2023-03-03T01:22:20;95342.94;;;5.20;100.00
13029;BME280;6581;42.662;23.402;2023-03-03T01:25:02;95336.78;;;5.16;100.00
13029;BME280;6581;42.662;23.402;2023-03-03T01:28:28;95334.41;;;5.23;100.00
13029;BME280;6581;42.662;23.402;2023-03-03T01:31:50;95332.50;;;5.11;100.00
13029;BME280;6581;42.662;23.402;2023-03-03T01:34:35;95328.66;;;5.09;100.00
13029;BME280;6581;42.662;23.402;2023-03-03T01:40:03;95316.69;;;4.99;100.00
13029;BME280;6581;42.662;23.402;2023-03-03T01:43:00;95309.31;;;4.93;100.00
13029;BME280;6581;42.662;23.402;2023-03-03T01:45:43;95330.03;;;4.94;100.00
13029;BME280;6581;42.662;23.402;2023-03-03T01:48:45;95328.47;;;4.93;100.00
13029;BME280;6581;42.662;23.402;2023-03-03T01:51:30;95314.66;;;4.84;100.00
13029;BME280;6581;42.662;23.402;2023-03-03T01:54:19;95319.88;;;4.84;100.00
13029;BME280;6581;42.662;23.402;2023-03-03T01:57:10;95326.50;;;4.90;100.00
13029;BME280;6581;42.662;23.402;2023-03-03T01:59:59;95317.00;;;4.98;100.00
13029;BME280;6581;42.662;23.402;2023-03-03T02:02:51;95319.69;;;5.10;100.00
13029;BME280;6581;42.662;23.402;2023-03-03T02:05:45;95310.09;;;4.93;100.00
13029;BME280;6581;42.662;23.402;2023-03-03T02:08:27;95325.28;;;5.08;100.00
13029;BME280;6581;42.662;23.402;2023-03-03T02:11:10;95317.44;;;5.00;100.00
13029;BME280;6581;42.662;23.402;2023-03-03T02:13:45;95309.78;;;4.95;100.00
13029;BME280;6581;42.662;23.402;2023-03-03T02:20:15;95308.38;;;4.76;100.00
13029;BME280;6581;42.662;23.402;2023-03-03T02:23:03;95314.81;;;4.79;100.00
13029;BME280;6581;42.662;23.402;2023-03-03T02:26:14;95326.03;;;4.88;100.00
13029;BME280;6581;42.662;23.402;2023-03-03T02:29:29;95306.31;;;4.82;100.00
13029;BME280;6581;42.662;23.402;2023-03-03T02:31:48;95312.03;;;4.84;100.00
13029;BME280;6581;42.662;23.402;2023-03-03T02:34:53;95323.88;;;4.90;100.00
13029;BME280;6581;42.662;23.402;2023-03-03T02:37:29;95313.88;;;4.83;100.00
13029;BME280;6581;42.662;23.402;2023-03-03T02:40:12;95322.13;;;4.94;100.00
13029;BME280;6581;42.662;23.402;2023-03-03T02:43:00;95302.72;;;4.86;100.00
13029;BME280;6581;42.662;23.402;2023-03-03T02:45:44;95321.25;;;4.90;100.00
13029;BME280;6581;42.662;23.402;2023-03-03T02:51:25;95314.19;;;4.82;100.00
13029;BME280;6581;42.662;23.402;2023-03-03T02:54:10;95312.97;;;4.79;100.00
13029;BME280;6581;42.662;23.402;2023-03-03T02:56:56;95318.22;;;5.00;100.00
13029;BME280;6581;42.662;23.402;2023-03-03T02:59:48;95319.56;;;5.06;100.00
13029;BME280;6581;42.662;23.402;2023-03-03T03:02:29;95289.28;;;4.88;100.00
13029;BME280;6581;42.662;23.402;2023-03-03T03:05:26;95298.63;;;4.98;100.00
13029;BME280;6581;42.662;23.402;2023-03-03T03:08:14;95296.13;;;5.22;100.00
13029;BME280;6581;42.662;23.402;2023-03-03T03:11:32;95298.09;;;5.04;100.00
13029;BME280;6581;42.662;23.402;2023-03-03T03:14:20;95308.00;;;5.07;100.00
13029;BME280;6581;42.662;23.402;2023-03-03T03:17:29;95307.47;;;4.93;100.00
13029;BME280;6581;42.662;23.402;2023-03-03T03:20:20;95310.41;;;4.91;100.00
13029;BME280;6581;42.662;23.402;2023-03-03T03:23:28;95300.00;;;5.04;100.00
13029;BME280;6581;42.662;23.402;2023-03-03T03:26:27;95301.25;;;4.98;100.00
13029;BME280;6581;42.662;23.402;2023-03-03T03:29:02;95309.38;;;5.05;100.00
13029;BME280;6581;42.662;23.402;2023-03-03T03:31:37;95294.59;;;5.00;100.00
13029;BME280;6581;42.662;23.402;2023-03-03T03:34:12;95309.53;;;5.08;100.00
13029;BME280;6581;42.662;23.402;2023-03-03T03:36:53;95298.94;;;4.96;100.00
13029;BME280;6581;42.662;23.402;2023-03-03T03:39:44;95296.31;;;4.96;100.00
13029;BME280;6581;42.662;23.402;2023-03-03T03:42:57;95297.69;;;5.02;100.00
13029;BME280;6581;42.662;23.402;2023-03-03T03:45:55;95296.13;;;5.01;100.00
13029;BME280;6581;42.662;23.402;2023-03-03T03:48:37;95288.38;;;5.05;100.00
13029;BME280;6581;42.662;23.402;2023-03-03T03:51:55;95280.69;;;5.00;100.00
13029;BME280;6581;42.662;23.402;2023-03-03T03:54:58;95279.81;;;4.96;100.00
13029;BME280;6581;42.662;23.402;2023-03-03T03:58:06;95287.19;;;5.02;100.00
13029;BME280;6581;42.662;23.402;2023-03-03T04:00:52;95269.91;;;4.80;100.00
13029;BME280;6581;42.662;23.402;2023-03-03T04:03:35;95277.06;;;4.92;100.00
13029;BME280;6581;42.662;23.402;2023-03-03T04:06:30;95284.75;;;4.97;100.00
13029;BME280;6581;42.662;23.402;2023-03-03T04:09:18;95277.63;;;4.98;100.00
13029;BME280;6581;42.662;23.402;2023-03-03T04:11:51;95264.91;;;4.87;100.00
13029;BME280;6581;42.662;23.402;2023-03-03T04:17:42;95271.28;;;4.78;100.00
13029;BME280;6581;42.662;23.402;2023-03-03T04:20:25;95277.50;;;4.73;100.00
13029;BME280;6581;42.662;23.402;2023-03-03T04:23:03;95282.38;;;4.63;100.00
13029;BME280;6581;42.662;23.402;2023-03-03T04:25:40;95273.28;;;4.60;100.00
13029;BME280;6581;42.662;23.402;2023-03-03T04:28:34;95269.03;;;4.47;100.00
13029;BME280;6581;42.662;23.402;2023-03-03T04:31:22;95272.19;;;4.61;100.00
13029;BME280;6581;42.662;23.402;2023-03-03T04:33:56;95281.03;;;4.57;100.00
13029;BME280;6581;42.662;23.402;2023-03-03T04:36:40;95274.41;;;4.51;100.00
13029;BME280;6581;42.662;23.402;2023-03-03T04:39:26;95276.97;;;4.59;100.00
13029;BME280;6581;42.662;23.402;2023-03-03T04:42:06;95281.66;;;4.54;100.00
13029;BME280;6581;42.662;23.402;2023-03-03T04:44:47;95250.56;;;4.43;100.00
13029;BME280;6581;42.662;23.402;2023-03-03T04:47:44;95259.03;;;4.40;100.00
13029;BME280;6581;42.662;23.402;2023-03-03T04:50:30;95261.94;;;4.47;100.00
13029;BME280;6581;42.662;23.402;2023-03-03T04:53:00;95257.66;;;4.43;100.00
13029;BME280;6581;42.662;23.402;2023-03-03T04:55:51;95270.66;;;4.60;100.00
13029;BME280;6581;42.662;23.402;2023-03-03T04:58:30;95287.66;;;4.54;100.00
13029;BME280;6581;42.662;23.402;2023-03-03T05:01:13;95283.41;;;4.70;100.00
13029;BME280;6581;42.662;23.402;2023-03-03T05:03:47;95263.44;;;4.57;100.00
13029;BME280;6581;42.662;23.402;2023-03-03T05:09:35;95279.94;;;4.78;100.00
13029;BME280;6581;42.662;23.402;2023-03-03T05:12:30;95287.41;;;4.68;100.00
13029;BME280;6581;42.662;23.402;2023-03-03T05:14:59;95275.47;;;4.58;100.00
13029;BME280;6581;42.662;23.402;2023-03-03T05:17:51;95270.72;;;4.52;100.00
13029;BME280;6581;42.662;23.402;2023-03-03T05:20:29;95286.97;;;4.66;100.00
13029;BME280;6581;42.662;23.402;2023-03-03T05:25:32;95273.88;;;4.66;100.00
13029;BME280;6581;42.662;23.402;2023-03-03T05:26:42;95275.00;;;4.56;100.00
13029;BME280;6581;42.662;23.402;2023-03-03T05:30:02;95298.06;;;4.71;100.00
13029;BME280;6581;42.662;23.402;2023-03-03T05:32:47;95289.84;;;4.73;100.00
13029;BME280;6581;42.662;23.402;2023-03-03T05:35:34;95285.19;;;4.78;100.00
13029;BME280;6581;42.662;23.402;2023-03-03T05:38:42;95295.69;;;4.99;100.00
13029;BME280;6581;42.662;23.402;2023-03-03T05:41:40;95303.25;;;5.01;100.00
13029;BME280;6581;42.662;23.402;2023-03-03T05:44:32;95283.66;;;4.98;100.00
13029;BME280;6581;42.662;23.402;2023-03-03T05:47:13;95292.22;;;5.07;100.00
13029;BME280;6581;42.662;23.402;2023-03-03T05:49:52;95291.34;;;5.03;100.00
13029;BME280;6581;42.662;23.402;2023-03-03T05:52:48;95298.38;;;5.11;100.00
13029;BME280;6581;42.662;23.402;2023-03-03T05:55:37;95303.34;;;5.04;100.00
13029;BME280;6581;42.662;23.402;2023-03-03T05:58:21;95298.19;;;5.16;100.00
13029;BME280;6581;42.662;23.402;2023-03-03T06:01:16;95283.47;;;5.03;100.00
13029;BME280;6581;42.662;23.402;2023-03-03T06:04:00;95283.91;;;5.05;100.00
13029;BME280;6581;42.662;23.402;2023-03-03T06:07:06;95295.94;;;5.06;100.00
13029;BME280;6581;42.662;23.402;2023-03-03T06:10:17;95293.50;;;5.01;100.00
13029;BME280;6581;42.662;23.402;2023-03-03T06:13:15;95310.63;;;5.07;100.00
13029;BME280;6581;42.662;23.402;2023-03-03T06:16:07;95293.00;;;5.08;100.00
13029;BME280;6581;42.662;23.402;2023-03-03T06:18:42;95286.59;;;5.17;100.00
13029;BME280;6581;42.662;23.402;2023-03-03T06:21:11;95310.34;;;5.21;100.00
13029;BME280;6581;42.662;23.402;2023-03-03T06:24:18;95315.41;;;5.26;100.00
13029;BME280;6581;42.662;23.402;2023-03-03T06:27:27;95314.81;;;5.20;100.00
13029;BME280;6581;42.662;23.402;2023-03-03T06:34:55;95290.75;;;4.98;100.00
13029;BME280;6581;42.662;23.402;2023-03-03T06:37:36;95313.56;;;5.06;100.00
13029;BME280;6581;42.662;23.402;2023-03-03T06:40:22;95314.63;;;5.05;100.00
13029;BME280;6581;42.662;23.402;2023-03-03T06:42:50;95309.53;;;5.08;100.00
13029;BME280;6581;42.662;23.402;2023-03-03T06:49:00;95311.81;;;5.30;100.00
13029;BME280;6581;42.662;23.402;2023-03-03T06:51:40;95315.22;;;5.31;100.00
13029;BME280;6581;42.662;23.402;2023-03-03T06:54:17;95318.22;;;5.21;100.00
13029;BME280;6581;42.662;23.402;2023-03-03T06:56:48;95322.56;;;5.38;100.00
13029;BME280;6581;42.662;23.402;2023-03-03T06:59:22;95321.00;;;5.36;100.00
13029;BME280;6581;42.662;23.402;2023-03-03T07:02:04;95313.81;;;5.46;100.00
13029;BME280;6581;42.662;23.402;2023-03-03T07:05:53;95315.16;;;5.52;100.00
13029;BME280;6581;42.662;23.402;2023-03-03T07:08:29;95312.34;;;5.57;100.00
13029;BME280;6581;42.662;23.402;2023-03-03T07:11:06;95315.19;;;5.64;100.00
13029;BME280;6581;42.662;23.402;2023-03-03T07:17:30;95318.25;;;5.54;100.00
13029;BME280;6581;42.662;23.402;2023-03-03T07:20:27;95320.81;;;5.74;100.00
13029;BME280;6581;42.662;23.402;2023-03-03T07:23:00;95316.53;;;5.82;100.00
13029;BME280;6581;42.662;23.402;2023-03-03T07:25:38;95291.56;;;5.76;100.00
13029;BME280;6581;42.662;23.402;2023-03-03T07:28:23;95304.25;;;5.95;100.00
13029;BME280;6581;42.662;23.402;2023-03-03T07:31:00;95301.84;;;6.14;100.00
13029;BME280;6581;42.662;23.402;2023-03-03T07:33:40;95292.09;;;6.27;100.00
13029;BME280;6581;42.662;23.402;2023-03-03T07:43:01;95295.25;;;6.44;100.00
13029;BME280;6581;42.662;23.402;2023-03-03T07:49:48;95301.53;;;6.28;100.00
13029;BME280;6581;42.662;23.402;2023-03-03T07:53:11;95305.22;;;6.14;100.00
13029;BME280;6581;42.662;23.402;2023-03-03T07:56:40;95284.88;;;5.78;100.00
13029;BME280;6581;42.662;23.402;2023-03-03T07:59:34;95288.84;;;5.85;100.00
13029;BME280;6581;42.662;23.402;2023-03-03T08:02:44;95299.06;;;5.86;100.00
13029;BME280;6581;42.662;23.402;2023-03-03T08:05:54;95294.50;;;5.95;100.00
13029;BME280;6581;42.662;23.402;2023-03-03T08:08:36;95280.00;;;5.89;100.00
13029;BME280;6581;42.662;23.402;2023-03-03T08:11:48;95278.22;;;5.81;100.00
13029;BME280;6581;42.662;23.402;2023-03-03T08:14:39;95298.44;;;6.01;100.00
13029;BME280;6581;42.662;23.402;2023-03-03T08:17:46;95282.31;;;6.15;100.00
13029;BME280;6581;42.662;23.402;2023-03-03T08:21:00;95276.53;;;6.09;100.00
13029;BME280;6581;42.662;23.402;2023-03-03T08:24:14;95298.75;;;6.24;100.00
13029;BME280;6581;42.662;23.402;2023-03-03T08:27:20;95269.31;;;6.18;100.00
13029;BME280;6581;42.662;23.402;2023-03-03T08:30:43;95271.69;;;6.11;100.00
13029;BME280;6581;42.662;23.402;2023-03-03T08:33:20;95278.59;;;6.28;100.00
13029;BME280;6581;42.662;23.402;2023-03-03T08:36:12;95283.75;;;6.49;100.00
13029;BME280;6581;42.662;23.402;2023-03-03T08:39:15;95283.75;;;6.49;100.00
13029;BME280;6581;42.662;23.402;2023-03-03T08:46:37;95265.75;;;6.63;100.00
13029;BME280;6581;42.662;23.402;2023-03-03T08:49:48;95289.59;;;6.94;100.00
13029;BME280;6581;42.662;23.402;2023-03-03T08:52:41;95284.81;;;6.60;100.00
13029;BME280;6581;42.662;23.402;2023-03-03T08:55:32;95270.84;;;6.32;100.00
13029;BME280;6581;42.662;23.402;2023-03-03T08:58:41;95282.22;;;6.36;100.00
13029;BME280;6581;42.662;23.402;2023-03-03T09:01:32;95287.25;;;6.53;100.00
13029;BME280;6581;42.662;23.402;2023-03-03T09:04:00;95300.41;;;6.53;100.00
13029;BME280;6581;42.662;23.402;2023-03-03T09:06:28;95292.06;;;6.63;100.00
13029;BME280;6581;42.662;23.402;2023-03-03T09:08:57;95287.22;;;6.77;100.00
13029;BME280;6581;42.662;23.402;2023-03-03T09:11:26;95292.34;;;6.86;100.00
13029;BME280;6581;42.662;23.402;2023-03-03T09:13:58;95289.13;;;7.04;100.00
13029;BME280;6581;42.662;23.402;2023-03-03T09:16:29;95286.50;;;7.04;100.00
13029;BME280;6581;42.662;23.402;2023-03-03T09:19:14;95288.69;;;7.02;100.00
13029;BME280;6581;42.662;23.402;2023-03-03T09:22:17;95284.00;;;6.84;100.00
13029;BME280;6581;42.662;23.402;2023-03-03T09:24:47;95282.38;;;6.79;100.00
13029;BME280;6581;42.662;23.402;2023-03-03T09:27:40;95282.91;;;6.85;100.00
13029;BME280;6581;42.662;23.402;2023-03-03T09:30:27;95281.63;;;6.66;100.00
13029;BME280;6581;42.662;23.402;2023-03-03T09:32:56;95285.50;;;6.69;100.00
13029;BME280;6581;42.662;23.402;2023-03-03T09:35:34;95288.56;;;6.59;100.00
13029;BME280;6581;42.662;23.402;2023-03-03T09:38:17;95286.16;;;6.54;100.00
13029;BME280;6581;42.662;23.402;2023-03-03T09:41:00;95287.00;;;6.70;100.00
13029;BME280;6581;42.662;23.402;2023-03-03T09:43:36;95277.50;;;6.93;100.00
13029;BME280;6581;42.662;23.402;2023-03-03T09:46:11;95280.91;;;6.94;100.00
13029;BME280;6581;42.662;23.402;2023-03-03T09:48:51;95292.03;;;6.87;100.00
13029;BME280;6581;42.662;23.402;2023-03-03T09:51:52;95288.97;;;7.13;100.00
13029;BME280;6581;42.662;23.402;2023-03-03T09:54:55;95283.03;;;7.16;100.00
13029;BME280;6581;42.662;23.402;2023-03-03T09:57:34;95284.63;;;7.33;100.00
13029;BME280;6581;42.662;23.402;2023-03-03T10:00:16;95284.09;;;7.55;100.00
13029;BME280;6581;42.662;23.402;2023-03-03T10:03:30;95277.38;;;7.57;100.00
13029;BME280;6581;42.662;23.402;2023-03-03T10:06:12;95273.47;;;7.51;99.01
13029;BME280;6581;42.662;23.402;2023-03-03T10:12:53;95277.75;;;7.87;97.13
13029;BME280;6581;42.662;23.402;2023-03-03T10:19:39;95269.66;;;7.65;97.28
13029;BME280;6581;42.662;23.402;2023-03-03T10:22:34;95280.19;;;7.80;95.93
13029;BME280;6581;42.662;23.402;2023-03-03T10:25:28;95272.88;;;7.89;94.68
13029;BME280;6581;42.662;23.402;2023-03-03T10:28:42;95268.72;;;7.88;96.71
13029;BME280;6581;42.662;23.402;2023-03-03T10:31:22;95263.38;;;8.00;95.84
13029;BME280;6581;42.662;23.402;2023-03-03T10:34:40;95258.19;;;8.04;95.59
13029;BME280;6581;42.662;23.402;2023-03-03T10:37:28;95233.84;;;7.79;94.27
13029;BME280;6581;42.662;23.402;2023-03-03T10:40:07;95254.44;;;8.05;94.69
13029;BME280;6581;42.662;23.402;2023-03-03T10:43:10;95246.50;;;8.21;93.51
13029;BME280;6581;42.662;23.402;2023-03-03T10:59:18;95242.09;;;7.93;95.08
13029;BME280;6581;42.662;23.402;2023-03-03T11:00:52;95226.09;;;7.86;95.62
13029;BME280;6581;42.662;23.402;2023-03-03T11:07:08;95230.69;;;7.58;97.34
13029;BME280;6581;42.662;23.402;2023-03-03T11:09:55;95240.41;;;7.70;99.21
13029;BME280;6581;42.662;23.402;2023-03-03T11:12:59;95245.75;;;7.73;98.04
13029;BME280;6581;42.662;23.402;2023-03-03T11:16:08;95234.25;;;7.50;98.50
13029;BME280;6581;42.662;23.402;2023-03-03T11:18:50;95225.25;;;7.51;99.32
13029;BME280;6581;42.662;23.402;2023-03-03T11:21:24;95198.34;;;7.30;99.19
13029;BME280;6581;42.662;23.402;2023-03-03T11:24:13;95218.31;;;7.31;98.76
13029;BME280;6581;42.662;23.402;2023-03-03T11:27:28;95213.50;;;7.33;99.38
13029;BME280;6581;42.662;23.402;2023-03-03T11:35:40;95213.97;;;7.38;100.00
13029;BME280;6581;42.662;23.402;2023-03-03T11:39:27;95205.84;;;7.43;100.00
13029;BME280;6581;42.662;23.402;2023-03-03T11:50:26;95184.91;;;7.19;100.00
13029;BME280;6581;42.662;23.402;2023-03-03T11:53:23;95198.53;;;7.37;100.00
13029;BME280;6581;42.662;23.402;2023-03-03T11:57:20;95214.22;;;7.33;100.00
13029;BME280;6581;42.662;23.402;2023-03-03T12:00:36;95208.50;;;7.16;100.00
13029;BME280;6581;42.662;23.402;2023-03-03T12:03:44;95204.22;;;7.23;100.00
13029;BME280;6581;42.662;23.402;2023-03-03T12:07:05;95208.38;;;7.40;100.00
13029;BME280;6581;42.662;23.402;2023-03-03T12:10:16;95203.22;;;7.59;100.00
13029;BME280;6581;42.662;23.402;2023-03-03T12:13:51;95200.09;;;7.69;100.00
13029;BME280;6581;42.662;23.402;2023-03-03T12:17:13;95202.13;;;7.76;100.00
13029;BME280;6581;42.662;23.402;2023-03-03T12:20:27;95206.63;;;7.75;100.00
13029;BME280;6581;42.662;23.402;2023-03-03T12:23:59;95197.00;;;7.67;100.00
13029;BME280;6581;42.662;23.402;2023-03-03T12:26:57;95193.91;;;7.34;100.00
13029;BME280;6581;42.662;23.402;2023-03-03T12:30:15;95209.63;;;7.74;100.00
13029;BME280;6581;42.662;23.402;2023-03-03T12:33:20;95197.34;;;7.66;100.00
13029;BME280;6581;42.662;23.402;2023-03-03T12:36:11;95197.63;;;7.61;100.00
13029;BME280;6581;42.662;23.402;2023-03-03T12:38:59;95206.03;;;7.66;100.00
13029;BME280;6581;42.662;23.402;2023-03-03T12:42:19;95213.75;;;7.43;100.00
13029;BME280;6581;42.662;23.402;2023-03-03T12:45:25;95212.84;;;7.51;100.00
13029;BME280;6581;42.662;23.402;2023-03-03T12:48:31;95213.44;;;7.61;100.00
13029;BME280;6581;42.662;23.402;2023-03-03T12:51:56;95191.63;;;7.32;100.00
13029;BME280;6581;42.662;23.402;2023-03-03T12:55:08;95201.78;;;7.46;100.00
13029;BME280;6581;42.662;23.402;2023-03-03T12:57:53;95205.84;;;7.43;100.00
13029;BME280;6581;42.662;23.402;2023-03-03T13:01:00;95211.34;;;7.38;100.00
13029;BME280;6581;42.662;23.402;2023-03-03T13:03:51;95197.41;;;7.38;100.00
13029;BME280;6581;42.662;23.402;2023-03-03T13:06:29;95199.19;;;7.34;100.00
13029;BME280;6581;42.662;23.402;2023-03-03T13:09:32;95199.84;;;7.15;100.00
13029;BME280;6581;42.662;23.402;2023-03-03T13:12:29;95194.25;;;7.17;100.00
13029;BME280;6581;42.662;23.402;2023-03-03T13:15:07;95197.13;;;7.11;100.00
13029;BME280;6581;42.662;23.402;2023-03-03T13:17:48;95194.94;;;6.86;100.00
13029;BME280;6581;42.662;23.402;2023-03-03T13:20:47;95184.06;;;6.87;100.00
13029;BME280;6581;42.662;23.402;2023-03-03T13:23:39;95181.47;;;6.75;100.00
13029;BME280;6581;42.662;23.402;2023-03-03T13:26:41;95193.38;;;6.85;100.00
13029;BME280;6581;42.662;23.402;2023-03-03T13:29:54;95166.06;;;6.61;100.00
13029;BME280;6581;42.662;23.402;2023-03-03T13:32:56;95178.75;;;6.72;100.00
13029;BME280;6581;42.662;23.402;2023-03-03T13:35:40;95191.75;;;6.80;100.00
13029;BME280;6581;42.662;23.402;2023-03-03T13:39:11;95184.50;;;6.89;100.00
13029;BME280;6581;42.662;23.402;2023-03-03T13:42:07;95190.38;;;6.98;100.00
13029;BME280;6581;42.662;23.402;2023-03-03T13:45:06;95185.81;;;6.83;100.00
13029;BME280;6581;42.662;23.402;2023-03-03T13:47:56;95177.25;;;6.58;100.00
13029;BME280;6581;42.662;23.402;2023-03-03T13:50:55;95186.72;;;6.87;100.00
13029;BME280;6581;42.662;23.402;2023-03-03T13:53:57;95200.34;;;7.05;100.00
13029;BME280;6581;42.662;23.402;2023-03-03T13:57:29;95184.63;;;6.81;100.00
13029;BME280;6581;42.662;23.402;2023-03-03T14:04:00;95185.94;;;7.15;100.00
13029;BME280;6581;42.662;23.402;2023-03-03T14:06:49;95188.88;;;7.13;100.00
13029;BME280;6581;42.662;23.402;2023-03-03T14:09:46;95179.34;;;7.08;100.00
13029;BME280;6581;42.662;23.402;2023-03-03T14:12:28;95177.66;;;7.00;100.00
13029;BME280;6581;42.662;23.402;2023-03-03T14:15:21;95203.25;;;7.16;100.00
13029;BME280;6581;42.662;23.402;2023-03-03T14:18:27;95194.06;;;7.09;100.00
13029;BME280;6581;42.662;23.402;2023-03-03T14:21:12;95190.91;;;7.04;100.00
13029;BME280;6581;42.662;23.402;2023-03-03T14:23:52;95191.75;;;7.08;100.00
13029;BME280;6581;42.662;23.402;2023-03-03T14:26:32;95188.34;;;7.07;100.00
13029;BME280;6581;42.662;23.402;2023-03-03T14:29:40;95166.59;;;7.10;100.00
13029;BME280;6581;42.662;23.402;2023-03-03T14:32:43;95163.13;;;7.06;100.00
13029;BME280;6581;42.662;23.402;2023-03-03T14:38:43;95181.91;;;7.05;100.00
13029;BME280;6581;42.662;23.402;2023-03-03T14:41:43;95177.81;;;7.07;100.00
13029;BME280;6581;42.662;23.402;2023-03-03T14:44:59;95175.09;;;7.04;100.00
13029;BME280;6581;42.662;23.402;2023-03-03T14:47:56;95169.63;;;6.97;100.00
13029;BME280;6581;42.662;23.402;2023-03-03T14:54:36;95165.50;;;6.96;100.00
13029;BME280;6581;42.662;23.402;2023-03-03T14:57:53;95179.03;;;7.26;100.00
13029;BME280;6581;42.662;23.402;2023-03-03T15:01:06;95162.22;;;7.15;100.00
13029;BME280;6581;42.662;23.402;2023-03-03T15:03:58;95182.97;;;7.32;100.00
13029;BME280;6581;42.662;23.402;2023-03-03T15:06:54;95181.59;;;7.22;100.00
13029;BME280;6581;42.662;23.402;2023-03-03T15:10:10;95161.00;;;7.12;100.00
13029;BME280;6581;42.662;23.402;2023-03-03T15:20:17;95183.63;;;7.29;100.00
13029;BME280;6581;42.662;23.402;2023-03-03T15:26:28;95175.56;;;7.22;100.00
13029;BME280;6581;42.662;23.402;2023-03-03T15:29:12;95186.94;;;7.26;100.00
13029;BME280;6581;42.662;23.402;2023-03-03T15:32:09;95166.03;;;7.17;100.00
13029;BME280;6581;42.662;23.402;2023-03-03T15:35:26;95188.97;;;7.17;100.00
13029;BME280;6581;42.662;23.402;2023-03-03T15:38:23;95181.91;;;7.21;100.00
13029;BME280;6581;42.662;23.402;2023-03-03T15:40:58;95187.53;;;7.19;100.00
13029;BME280;6581;42.662;23.402;2023-03-03T15:43:35;95192.13;;;7.22;100.00
13029;BME280;6581;42.662;23.402;2023-03-03T15:46:14;95188.16;;;7.28;100.00
13029;BME280;6581;42.662;23.402;2023-03-03T15:49:38;95185.84;;;7.27;100.00
13029;BME280;6581;42.662;23.402;2023-03-03T15:52:33;95183.97;;;7.27;100.00
13029;BME280;6581;42.662;23.402;2023-03-03T15:55:30;95187.16;;;7.33;100.00
13029;BME280;6581;42.662;23.402;2023-03-03T15:58:54;95183.38;;;7.34;100.00
13029;BME280;6581;42.662;23.402;2023-03-03T16:01:32;95173.94;;;7.17;100.00
13029;BME280;6581;42.662;23.402;2023-03-03T16:04:19;95190.19;;;7.19;100.00
13029;BME280;6581;42.662;23.402;2023-03-03T16:07:20;95195.88;;;7.21;100.00
13029;BME280;6581;42.662;23.402;2023-03-03T16:10:33;95201.97;;;7.25;100.00
13029;BME280;6581;42.662;23.402;2023-03-03T16:13:43;95189.22;;;7.11;100.00
13029;BME280;6581;42.662;23.402;2023-03-03T16:16:27;95211.88;;;7.28;100.00
13029;BME280;6581;42.662;23.402;2023-03-03T16:20:02;95217.75;;;7.37;100.00
13029;BME280;6581;42.662;23.402;2023-03-03T16:23:13;95224.19;;;7.40;100.00
13029;BME280;6581;42.662;23.402;2023-03-03T16:26:12;95195.09;;;7.21;100.00
13029;BME280;6581;42.662;23.402;2023-03-03T16:29:05;95220.03;;;7.39;100.00
13029;BME280;6581;42.662;23.402;2023-03-03T16:31:50;95212.53;;;7.25;100.00
13029;BME280;6581;42.662;23.402;2023-03-03T16:34:33;95210.38;;;7.15;100.00
13029;BME280;6581;42.662;23.402;2023-03-03T16:37:54;95213.22;;;7.22;100.00
13029;BME280;6581;42.662;23.402;2023-03-03T16:40:34;95202.47;;;7.15;100.00
13029;BME280;6581;42.662;23.402;2023-03-03T16:43:26;95221.09;;;7.22;100.00
13029;BME280;6581;42.662;23.402;2023-03-03T16:46:18;95214.22;;;7.18;100.00
13029;BME280;6581;42.662;23.402;2023-03-03T16:49:02;95223.91;;;7.13;100.00
13029;BME280;6581;42.662;23.402;2023-03-03T16:51:55;95238.50;;;7.11;100.00
13029;BME280;6581;42.662;23.402;2023-03-03T16:55:23;95237.97;;;7.05;100.00
13029;BME280;6581;42.662;23.402;2023-03-03T16:58:36;95246.50;;;7.15;100.00
13029;BME280;6581;42.662;23.402;2023-03-03T17:01:24;95246.16;;;7.16;100.00
13029;BME280;6581;42.662;23.402;2023-03-03T17:04:55;95250.50;;;7.24;100.00
13029;BME280;6581;42.662;23.402;2023-03-03T17:07:48;95233.22;;;7.11;100.00